Impacts METAR Board
IDs:

KBWI - Baltimore-Washington, MD, US

Updated at: 1900 UTC 22 Sep 2018
Potential Impact None Slight Moderate High
Time 22/07Z 22/08Z 22/09Z 22/10Z 22/11Z 22/12Z 22/13Z 22/14Z 22/15Z 22/16Z 22/17Z 22/18Z 22/19Z
Temp72 72 73 72 71 73 73 75 77 76 75 75 74
Dewpt70 70 71 71 71 72 70 63 65 61 62 59 59
Altim29.99 30.00 30.02 30.04 30.06 30.08 30.09 30.10 30.12 30.13 30.14 30.14 30.13
VIS10 10 10 4 3 7 10 10 10 10 10 10 10
CIG-- 11 11 50 50 120 170 110 180 170 160 110 120
CoverFEWBKNOVCOVCOVCBKNBKNBKNBKNBKNBKNBKNBKN
FltCatVFRMVFRMVFRMVFRMVFRVFRVFRVFRVFRVFRVFRVFRVFR
WX-------RA BRBR----------------
WDir2302800240270320330101036036036010
WSpd6 5 0 4 3 5 6 8 10 10 5 5 6
WGst-- -- -- -- -- -- -- -- 16 -- -- -- --
Raw hourly METARs
KBWI 220654Z 23006KT 10SM FEW120 22/21 A2999 RMK AO2 SLP155 T02220211
KBWI 220754Z 28005KT 10SM BKN011 BKN030 BKN120 22/21 A3000 RMK AO2 SLP157 T02220211
KBWI 220854Z 00000KT 10SM OVC011 23/22 A3002 RMK AO2 SLP165 T02280217 53004
KBWI 220954Z 24004KT 4SM -RA BR SCT014 BKN050 OVC100 22/22 A3004 RMK AO2 RAB39 SLP172 P0001 T02220217
KBWI 221054Z 27003KT 3SM BR FEW016 BKN050 BKN110 OVC160 22/22 A3006 RMK AO2 RAE33 SLP179 P0003 T02170217
KBWI 221154Z 32005KT 7SM SCT065 BKN120 BKN150 23/22 A3008 RMK AO2 SLP184 60004 70004 T02280222 10228 20217 51019
KBWI 221254Z 33006KT 10SM BKN170 23/21 A3009 RMK AO2 SLP187 T02280211
KBWI 221354Z 01008KT 10SM FEW020 BKN110 BKN200 24/17 A3010 RMK AO2 SLP190 T02390172
KBWI 221454Z 01010G16KT 10SM FEW020 BKN180 25/18 A3012 RMK AO2 SLP198 T02500183 53015
KBWI 221554Z 36010KT 10SM FEW020 BKN170 24/16 A3013 RMK AO2 SLP200 T02440161
KBWI 221654Z 36005KT 10SM FEW020 SCT110 BKN160 24/17 A3014 RMK AO2 SLP205 T02390167
KBWI 221754Z 36005KT 10SM FEW020 BKN110 BKN250 24/15 A3014 RMK AO2 SLP205 T02390150 10256 20228 51007
KBWI 221854Z 01006KT 10SM FEW020 BKN120 BKN250 23/15 A3013 RMK AO2 SLP203 T02330150



Page loaded:  19:43 UTC  |   12:43 PM Pacific  |   01:43 PM Mountain  |   02:43 PM Central  |   03:43 PM Eastern

 

ADVISORIES

FORECASTS

FORECASTS

OBSERVATIONS

USER TOOLS

ABOUT US